Whale Point, California Weather observations

Data are for observation ending at time listed.
 Day   Time    Ave.   Ave.  Ave.  Vector   Max.   Stn.    Total    Solar   Ave.  
  of    of     Air    Rel.  Wind   Wind    Wind   Baro.  Precip.   Rad.    Soil  
Year   Day     Temp.  Hum.  Speed  Dir.    Gust   Pres.                    Temp. 
2014   (PST)    F      %     mph   deg.    mph     mb.     in.     W/m2     F   
------------------------------------------------------------------------------
 355   16:40   63.1    79    1.7   205      3.4   1001.7    0.00      61    58.8
 355   16:50   63.2    80    2.0   233      3.7   1001.7    0.00      37    58.9
 355   17:00   62.3    81    1.6   206      3.8   1001.7    0.00      13    59.0
 355   17:10   61.2    83    1.8   310      5.3   1001.4    0.00       5    59.1
 355   17:20   60.8    84    2.0   164      4.2   1001.4    0.00       1    59.1
 355   17:30   60.2    85    2.0    93      4.5   1001.4    0.00       0    59.2
 355   17:40   60.0    86    2.3    85      5.0   1001.4    0.00       0    59.2
 355   17:50   59.6    86    1.1   101      3.4   1001.7    0.00       0    59.3
 355   18:00   59.3    86    1.2   131      3.2   1001.7    0.00       0    59.3
 355   18:10   59.3    87    2.6    68      6.9   1001.7    0.00       0    59.4
 355   18:20   59.8    85    2.0   172      4.5   1001.7    0.00       0    59.4
 355   18:30   59.5    85    1.9   148      4.2   1001.7    0.00       0    59.5
 355   18:40   59.5    86    2.4   183      5.3   1001.7    0.00       0    59.5
 355   18:50   59.3    86    3.0   182      6.7   1001.7    0.00       0    59.5
 355   19:00   59.3    87    2.7   172      5.5   1001.7    0.00       0    59.5
 355   19:10   59.0    88    2.0    66      3.7   1001.7    0.00       0    59.5
 355   19:20   59.1    87    2.7    50      5.5   1001.7    0.00       0    59.6
 355   19:30   59.5    84    0.9    48      1.9   1001.7    0.00       0    59.6
 355   19:40   59.6    84    2.8    50      5.8   1001.7    0.00       0    59.6
 355   19:50   59.2    83    3.9    48      9.4   1001.7    0.00       0    59.6
 355   20:00   60.2    79    2.2   303      5.6   1001.7    0.00       0    59.6
 355   20:10   60.9    77    2.0   353      5.2   1001.7    0.00       0    59.6
 355   20:20   60.0    80    1.6   101      4.9   1001.7    0.00       0    59.6
 355   20:30   60.4    80    1.4    83      3.9   1001.7    0.00       0    59.5
 355   20:40   59.8    81    1.4   138      3.3   1002.0    0.00       0    59.5
 355   20:50   59.6    83    1.8   111      3.4   1002.0    0.00       0    59.5
 355   21:00   59.9    83    1.7   145      4.3   1002.0    0.00       0    59.5
 355   21:10   59.4    84    1.6    63      3.6   1001.7    0.00       0    59.5
 355   21:20   59.1    85    1.7   130      4.3   1001.7    0.00       0    59.5
 355   21:30   59.5    84    1.6    68      6.4   1001.7    0.00       0    59.4
 355   21:40   59.2    83    2.7   297     10.1   1002.0    0.00       0    59.4
 355   21:50   60.1    81    2.3   164      6.2   1002.0    0.00       0    59.4
 355   22:00   60.4    80    1.9   153      5.2   1002.0    0.00       0    59.4
 355   22:10   60.7    78    1.6   146      4.3   1002.0    0.00       0    59.3
 355   22:20   59.9    80    1.4   151      4.1   1002.0    0.00       0    59.3
 355   22:30   59.1    83    2.1    96      5.0   1002.0    0.00       0    59.3
 355   22:40   59.0    81    3.8    68      8.0   1002.0    0.00       0    59.2
 355   22:50   58.3    84    1.8    42      4.7   1001.7    0.00       0    59.2
 355   23:00   58.0    85    2.2    55      4.0   1002.0    0.00       0    59.2
 355   23:10   59.4    83    1.2    54      3.0   1001.7    0.00       0    59.1
 355   23:20   60.0    80    1.2    86      3.4   1001.7    0.00       0    59.1
 355   23:30   60.2    79    2.4   144      5.8   1001.7    0.00       0    59.1
 355   23:40   59.9    80    2.2   132      7.2   1001.7    0.00       0    59.1
 355   23:50   59.6    79    2.4   115      7.2   1001.7    0.00       0    59.0
 356    0:00   60.2    77    3.2    96      6.1   1001.7    0.00       0    59.0
 356    0:10   59.1    78    2.7    60      7.7   1001.4    0.00       0    59.0
 356    0:20   59.0    80    1.7    43      5.4   1001.4    0.00       0    58.9
 356    0:30   58.9    81    3.0   161      6.0   1001.0    0.00       0    58.9
 356    0:40   59.2    82    3.2   176      8.5   1001.0    0.00       0    58.9
 356    0:50   58.9    82    1.7   175      5.1   1001.0    0.00       0    58.8
 356    1:00   58.7    82    1.6     9      4.5   1001.0    0.00       0    58.8
 356    1:10   58.9    81    1.4    17      3.0   1001.0    0.00       0    58.7
 356    1:20   59.6    78    2.2   120      4.8   1001.0    0.00       0    58.7
 356    1:30   58.8    81    1.6   158      4.3   1001.4    0.00       0    58.7
 356    1:40   58.2    83    1.8    88      3.9   1001.4    0.00       0    58.6
 356    1:50   58.6    81    3.3    63      6.6   1001.4    0.00       0    58.6
 356    2:00   58.9    80    3.0   120      6.2   1001.4    0.00       0    58.5
 356    2:10   59.1    82    4.0   125      8.4   1001.4    0.00       0    58.5
 356    2:20   59.1    81    5.2   125     10.9   1001.4    0.00       0    58.5
 356    2:30   58.4    81    1.6    59      5.0   1001.4    0.00       0    58.5
 356    2:40   58.5    80    1.4    40      5.5   1001.0    0.00       0    58.4
 356    2:50   58.6    78    2.5    85      5.7   1001.0    0.00       0    58.4
 356    3:00   58.7    78    1.9   150      4.2   1001.0    0.00       0    58.4
 356    3:10   58.0    79    1.4   127      4.3   1001.0    0.00       0    58.3
 356    3:20   57.8    80    1.9   139      3.1   1000.7    0.00       0    58.3
 356    3:30   57.4    82    1.5   164      6.9   1000.7    0.00       0    58.2
 356    3:40   57.9    82    2.9   202      5.8   1000.7    0.00       0    58.2
 356    3:50   57.0    84    1.0   127      3.2   1000.7    0.00       0    58.2
 356    4:00   57.5    82    3.1    59      6.4   1000.7    0.00       0    58.2
 356    4:10   58.1    81    4.1    65      8.8   1000.7    0.00       0    58.1
 356    4:20   58.7    79    5.1    51      8.7   1000.7    0.00       0    58.1
 356    4:30   58.7    77    2.2    86      4.2   1000.7    0.00       0    58.0
 356    4:40   58.5    79    1.1    80      2.5   1000.7    0.00       0    58.0
 356    4:50   59.1    77    2.1    29      4.5   1000.7    0.00       0    58.0
 356    5:00   58.4    77    3.8    47      8.0   1000.7    0.00       0    57.9
 356    5:10   59.2    72    2.2    94      5.2   1000.7    0.00       0    57.9
 356    5:20   59.6    71    1.6   137      4.1   1000.7    0.00       0    57.9
 356    5:30   59.5    71    1.2   125      4.3   1000.7    0.00       0    57.8
 356    5:40   59.1    73    1.1   112      2.6   1000.7    0.00       0    57.8
 356    5:50   58.1    76    1.3   142      2.9   1000.7    0.00       0    57.8
 356    6:00   57.6    79    1.6    58      3.2   1000.7    0.00       0    57.7
 356    6:10   58.1    77    1.6    96      3.9   1000.7    0.00       0    57.7
 356    6:20   58.1    76    1.7   144      3.2   1000.7    0.00       0    57.7
 356    6:30   57.6    79    1.3   184      3.8   1000.7    0.00       0    57.6
 356    6:40   57.1    81    1.4    94      4.6   1000.7    0.00       0    57.6
 356    6:50   57.0    80    1.5    75      4.2   1000.3    0.00       0    57.6
 356    7:00   56.4    81    2.0    35      3.9   1000.7    0.00       1    57.5
 356    7:10   57.0    81    1.6   111      4.1   1000.7    0.00       2    57.5
 356    7:20   57.3    84    1.1    69      2.8   1000.7    0.00       5    57.4
 356    7:30   57.4    83    2.4    11      4.3   1000.7    0.00       8    57.4
 356    7:40   58.1    79    0.8     7      2.7   1000.7    0.00      11    57.3
 356    7:50   58.5    76    1.5    54      3.1   1000.7    0.00      13    57.3
 356    8:00   58.1    75    1.4    22      3.8   1001.0    0.00      15    57.3
 356    8:10   57.7    81    1.9   136      3.7   1001.0    0.00      18    57.2
 356    8:20   57.7    85    0.9   146      3.1   1001.0    0.00      20    57.2
 356    8:30   57.4    86    1.8   152      3.2   1001.0    0.00      23    57.2
 356    8:40   57.4    88    1.4   114      3.1   1001.4    0.00      24    57.1
 356    8:50   57.7    85    2.9    47      5.0   1001.0    0.00      25    57.1
 356    9:00   58.7    81    1.6   145      4.7   1001.0    0.00     189    57.1
 356    9:10   59.9    80    2.2   178      5.0   1001.4    0.00     293    57.1
 356    9:20   60.4    80    2.4   192      5.6   1001.4    0.00     318    57.0
 356    9:30   61.0    79    0.7   210      2.9   1001.4    0.00     342    57.0
 356    9:40   61.9    75    0.8   319      2.2   1001.4    0.00     368    56.9
 356    9:50   61.3    77    1.1   312      3.1   1001.4    0.00     391    56.9
 356   10:00   61.9    76    2.6   198      4.6   1001.7    0.00     410    56.9
 356   10:10   61.9    78    2.5   197      4.8   1001.7    0.00     427    56.9
 356   10:20   61.8    78    2.6   216      4.8   1001.4    0.00     443    56.9
 356   10:30   61.0    81    2.5   214      5.8   1001.4    0.00     465    56.9
 356   10:40   62.1    80    2.3   224      4.8   1001.0    0.00     479    56.9
 356   10:50   61.5    80    3.7   201      6.4   1001.0    0.00     491    56.8
 356   11:00   60.7    84    4.5   212      7.7   1001.0    0.00     506    56.8
 356   11:10   60.4    86    4.6   217      7.2   1000.7    0.00     518    56.9
 356   11:20   60.8    86    3.9   212      7.8   1000.7    0.00     527    56.9
 356   11:30   60.8    86    4.1   209      6.5   1000.3    0.00     530    56.9
 356   11:40   61.2    85    4.6   219      7.5   1000.3    0.00     543    56.9
 356   11:50   61.2    85    4.9   217      9.4   1000.0    0.00     550    56.9
 356   12:00   61.1    86    4.5   223      8.4   1000.0    0.00     551    56.9
 356   12:10   61.4    85    3.2   227      5.6   1000.0    0.00     553    56.9
 356   12:20   61.9    83    3.0   234      5.4   999.7    0.00     551    57.0
 356   12:30   61.4    84    3.1   235      5.5   999.7    0.00     547    57.0
 356   12:40   61.4    85    4.1   229      6.5   999.7    0.00     543    57.0
 356   12:50   61.6    84    3.1   226      5.9   999.7    0.00     535    57.1
 356   13:00   62.8    79    2.6   226      6.6   999.3    0.00     528    57.1
 356   13:10   63.5    76    3.0   227      5.8   999.3    0.00     517    57.2
 356   13:20   63.8    76    3.0   233      5.8   999.0    0.00     504    57.2
 356   13:30   64.5    73    4.2   225      6.7   999.0    0.00     493    57.3
 356   13:40   64.5    73    3.6   215      7.3   999.0    0.00     478    57.4
 356   13:50   64.6    72    4.3   220      6.8   998.6    0.00     462    57.5
 356   14:00   64.3    74    5.1   221      7.7   998.6    0.00     440    57.5
 356   14:10   63.9    74    4.5   220      7.5   998.6    0.00     420    57.6
 356   14:20   64.1    75    2.9   217      5.4   998.3    0.00     402    57.7
 356   14:30   65.1    74    2.2   242      5.0   998.3    0.00     384    57.8
 356   14:40   65.8    73    1.8   229      4.9   998.3    0.00     360    57.9
 356   14:50   65.3    75    3.6   229      5.3   998.6    0.00     334    58.0
 356   15:00   64.8    76    3.2   221      6.4   998.6    0.00     309    58.1
 356   15:10   65.1    75    4.5   218      7.0   998.6    0.00     282    58.2
 356   15:20   64.1    77    4.7   215      7.2   998.6    0.00     252    58.3
 356   15:30   63.8    78    4.7   212      7.3   998.6    0.00     225    58.4
 356   15:40   63.3    79    3.8   226      6.3   998.6    0.00     198    58.5
 356   15:50   63.4    80    3.8   228      5.6   998.6    0.00     169    58.6
 356   16:00   64.3    78    3.6   210      5.1   998.6    0.00     143    58.7
 356   16:10   63.5    78    3.0   225      5.2   998.6    0.00     116    58.8
 356   16:20   63.4    76    1.3   270      4.2   998.3    0.00      92    58.9
 356   16:30   62.8    77    0.9   298      3.1   998.3    0.00      70    59.0

Return to Whale Point graphs page.


Western Regional Climate Center,wrcc@dri.edu